Página principal
METAR-TAF:

METAR-TAF

Aeroportos :

Gorgan, Irão

latitude: 36-49N, longitude: 054-28E, altura: 155 m

Observação actual do tempo

O boletim foi feito há 14 minutos, às 03:00 UTC
Vento calmo
Temperatura 16°C
Humidade 94%
Pressão 1015 hPa
Visibilidade 10 km ou mais
sem nuvens abaixo de 1500 metros e sem cumulonimbus

METAR: OING 230300Z 00000KT CAVOK 16/15 Q1015

Hora: 07:44 (03:14 UTC)


TAF: em falta

Observações e previsões do tempo de mais de 4000 aeroportos (mensagens METAR e TAF).

As estações disponíveis são os pontos amarelos e vermelhos sobre o mapa.

Mova o rato sobre o mapa para ver o nome da estação.

Depois clique no ponto para visualizar as observações e previsões meteorológicas.

Para alterar o mapa : clique nos botões verdes com uma cruz preta para aumentar o zoom; no botão verde com uma pitada de zoom; ou nas setas verdes para mapas adjacentes.


METAR-TAF: